sensor_id;sensor_type;location;lat;lon;timestamp;temperature;humidity
28530;DHT22;15737;49.760;6.632;2024-03-22T00:01:58;10.20;99.90
28530;DHT22;15737;49.760;6.632;2024-03-22T00:04:23;10.20;99.90
28530;DHT22;15737;49.760;6.632;2024-03-22T00:06:49;10.20;99.90
28530;DHT22;15737;49.760;6.632;2024-03-22T00:09:15;10.20;99.90
28530;DHT22;15737;49.760;6.632;2024-03-22T00:11:42;10.20;99.90
28530;DHT22;15737;49.760;6.632;2024-03-22T00:14:08;10.20;99.90
28530;DHT22;15737;49.760;6.632;2024-03-22T00:16:34;10.20;99.90
28530;DHT22;15737;49.760;6.632;2024-03-22T00:19:00;10.20;99.90
28530;DHT22;15737;49.760;6.632;2024-03-22T00:21:25;10.10;99.90
28530;DHT22;15737;49.760;6.632;2024-03-22T00:23:51;10.10;99.90
28530;DHT22;15737;49.760;6.632;2024-03-22T00:26:17;10.00;99.90
28530;DHT22;15737;49.760;6.632;2024-03-22T00:28:42;10.00;99.90
28530;DHT22;15737;49.760;6.632;2024-03-22T00:31:08;10.00;99.90
28530;DHT22;15737;49.760;6.632;2024-03-22T00:33:34;10.10;99.90
28530;DHT22;15737;49.760;6.632;2024-03-22T00:36:01;10.10;99.90
28530;DHT22;15737;49.760;6.632;2024-03-22T00:38:26;10.10;99.90
28530;DHT22;15737;49.760;6.632;2024-03-22T00:40:52;10.10;99.90
28530;DHT22;15737;49.760;6.632;2024-03-22T00:43:18;10.20;99.90
28530;DHT22;15737;49.760;6.632;2024-03-22T00:45:43;10.30;99.90
28530;DHT22;15737;49.760;6.632;2024-03-22T00:48:09;10.30;99.90
28530;DHT22;15737;49.760;6.632;2024-03-22T00:50:34;10.30;99.90
28530;DHT22;15737;49.760;6.632;2024-03-22T00:53:00;10.20;99.90
28530;DHT22;15737;49.760;6.632;2024-03-22T00:55:28;10.20;99.90
28530;DHT22;15737;49.760;6.632;2024-03-22T00:57:54;10.10;99.90
28530;DHT22;15737;49.760;6.632;2024-03-22T01:00:19;10.00;99.90
28530;DHT22;15737;49.760;6.632;2024-03-22T01:02:45;9.90;99.90
28530;DHT22;15737;49.760;6.632;2024-03-22T01:05:10;9.80;99.90
28530;DHT22;15737;49.760;6.632;2024-03-22T01:07:37;9.80;99.90
28530;DHT22;15737;49.760;6.632;2024-03-22T01:10:03;9.80;99.90
28530;DHT22;15737;49.760;6.632;2024-03-22T01:12:29;9.70;99.90
28530;DHT22;15737;49.760;6.632;2024-03-22T01:14:55;9.70;99.90
28530;DHT22;15737;49.760;6.632;2024-03-22T01:17:20;9.80;99.90
28530;DHT22;15737;49.760;6.632;2024-03-22T01:19:46;9.80;99.90
28530;DHT22;15737;49.760;6.632;2024-03-22T01:22:11;9.80;99.90
28530;DHT22;15737;49.760;6.632;2024-03-22T01:24:37;9.80;99.90
28530;DHT22;15737;49.760;6.632;2024-03-22T01:27:03;9.90;99.90
28530;DHT22;15737;49.760;6.632;2024-03-22T01:29:29;10.00;99.90
28530;DHT22;15737;49.760;6.632;2024-03-22T01:31:59;10.10;99.90
28530;DHT22;15737;49.760;6.632;2024-03-22T01:34:25;10.10;99.90
28530;DHT22;15737;49.760;6.632;2024-03-22T01:36:53;10.10;99.90
28530;DHT22;15737;49.760;6.632;2024-03-22T01:39:20;10.20;99.90
28530;DHT22;15737;49.760;6.632;2024-03-22T01:41:49;10.10;99.90
28530;DHT22;15737;49.760;6.632;2024-03-22T01:44:14;10.10;99.90
28530;DHT22;15737;49.760;6.632;2024-03-22T01:46:41;10.10;99.90
28530;DHT22;15737;49.760;6.632;2024-03-22T01:49:12;10.10;99.90
28530;DHT22;15737;49.760;6.632;2024-03-22T01:51:39;10.10;99.90
28530;DHT22;15737;49.760;6.632;2024-03-22T01:54:08;10.10;99.90
28530;DHT22;15737;49.760;6.632;2024-03-22T01:56:36;10.10;99.90
28530;DHT22;15737;49.760;6.632;2024-03-22T01:59:03;10.00;99.90
28530;DHT22;15737;49.760;6.632;2024-03-22T02:01:31;10.10;99.90
28530;DHT22;15737;49.760;6.632;2024-03-22T02:03:56;10.10;99.90
28530;DHT22;15737;49.760;6.632;2024-03-22T02:06:22;10.10;99.90
28530;DHT22;15737;49.760;6.632;2024-03-22T02:08:47;10.10;99.90
28530;DHT22;15737;49.760;6.632;2024-03-22T02:11:13;10.10;99.90
28530;DHT22;15737;49.760;6.632;2024-03-22T02:13:39;10.30;99.90
28530;DHT22;15737;49.760;6.632;2024-03-22T02:16:05;10.40;99.90
28530;DHT22;15737;49.760;6.632;2024-03-22T02:18:30;10.60;99.90
28530;DHT22;15737;49.760;6.632;2024-03-22T02:20:59;10.50;99.90
28530;DHT22;15737;49.760;6.632;2024-03-22T02:23:33;10.50;99.90
28530;DHT22;15737;49.760;6.632;2024-03-22T02:26:00;10.40;99.90
28530;DHT22;15737;49.760;6.632;2024-03-22T02:28:25;10.30;99.90
28530;DHT22;15737;49.760;6.632;2024-03-22T02:30:51;10.30;99.90
28530;DHT22;15737;49.760;6.632;2024-03-22T02:33:16;10.40;99.90
28530;DHT22;15737;49.760;6.632;2024-03-22T02:35:42;10.50;99.90
28530;DHT22;15737;49.760;6.632;2024-03-22T02:38:08;10.50;99.90
28530;DHT22;15737;49.760;6.632;2024-03-22T02:40:34;10.50;99.90
28530;DHT22;15737;49.760;6.632;2024-03-22T02:42:59;10.40;99.90
28530;DHT22;15737;49.760;6.632;2024-03-22T02:45:25;10.40;99.90
28530;DHT22;15737;49.760;6.632;2024-03-22T02:47:50;10.40;99.90
28530;DHT22;15737;49.760;6.632;2024-03-22T02:50:16;10.20;99.90
28530;DHT22;15737;49.760;6.632;2024-03-22T02:52:41;10.10;99.90
28530;DHT22;15737;49.760;6.632;2024-03-22T02:55:07;9.90;99.90
28530;DHT22;15737;49.760;6.632;2024-03-22T02:57:33;9.80;99.90
28530;DHT22;15737;49.760;6.632;2024-03-22T03:00:00;9.70;99.90
28530;DHT22;15737;49.760;6.632;2024-03-22T03:02:26;9.60;99.90
28530;DHT22;15737;49.760;6.632;2024-03-22T03:04:51;9.60;99.90
28530;DHT22;15737;49.760;6.632;2024-03-22T03:07:17;9.60;99.90
28530;DHT22;15737;49.760;6.632;2024-03-22T03:09:42;9.60;99.90
28530;DHT22;15737;49.760;6.632;2024-03-22T03:12:08;9.60;99.90
28530;DHT22;15737;49.760;6.632;2024-03-22T03:14:33;9.60;99.90
28530;DHT22;15737;49.760;6.632;2024-03-22T03:16:59;9.60;99.90
28530;DHT22;15737;49.760;6.632;2024-03-22T03:19:24;9.60;99.90
28530;DHT22;15737;49.760;6.632;2024-03-22T03:21:50;9.60;99.90
28530;DHT22;15737;49.760;6.632;2024-03-22T03:24:15;9.70;99.90
28530;DHT22;15737;49.760;6.632;2024-03-22T03:26:41;9.70;99.90
28530;DHT22;15737;49.760;6.632;2024-03-22T03:29:06;9.80;99.90
28530;DHT22;15737;49.760;6.632;2024-03-22T03:31:32;9.80;99.90
28530;DHT22;15737;49.760;6.632;2024-03-22T03:33:57;9.80;99.90
28530;DHT22;15737;49.760;6.632;2024-03-22T03:36:23;9.90;99.90
28530;DHT22;15737;49.760;6.632;2024-03-22T03:38:48;10.00;99.90
28530;DHT22;15737;49.760;6.632;2024-03-22T03:41:14;10.00;99.90
28530;DHT22;15737;49.760;6.632;2024-03-22T03:43:39;10.10;99.90
28530;DHT22;15737;49.760;6.632;2024-03-22T03:46:05;10.10;99.90
28530;DHT22;15737;49.760;6.632;2024-03-22T03:48:30;10.00;99.90
28530;DHT22;15737;49.760;6.632;2024-03-22T03:50:56;10.00;99.90
28530;DHT22;15737;49.760;6.632;2024-03-22T03:53:24;10.00;99.90
28530;DHT22;15737;49.760;6.632;2024-03-22T03:55:50;9.90;99.90
28530;DHT22;15737;49.760;6.632;2024-03-22T03:58:15;9.80;99.90
28530;DHT22;15737;49.760;6.632;2024-03-22T04:00:43;9.70;99.90
28530;DHT22;15737;49.760;6.632;2024-03-22T04:03:08;9.70;99.90
28530;DHT22;15737;49.760;6.632;2024-03-22T04:05:34;9.60;99.90
28530;DHT22;15737;49.760;6.632;2024-03-22T04:07:59;9.60;99.90
28530;DHT22;15737;49.760;6.632;2024-03-22T04:10:25;9.60;99.90
28530;DHT22;15737;49.760;6.632;2024-03-22T04:12:50;9.50;99.90
28530;DHT22;15737;49.760;6.632;2024-03-22T04:15:16;9.50;99.90
28530;DHT22;15737;49.760;6.632;2024-03-22T04:17:41;9.50;99.90
28530;DHT22;15737;49.760;6.632;2024-03-22T04:20:07;9.40;99.90
28530;DHT22;15737;49.760;6.632;2024-03-22T04:22:34;9.40;99.90
28530;DHT22;15737;49.760;6.632;2024-03-22T04:24:59;9.40;99.90
28530;DHT22;15737;49.760;6.632;2024-03-22T04:27:25;9.40;99.90
28530;DHT22;15737;49.760;6.632;2024-03-22T04:29:50;9.40;99.90
28530;DHT22;15737;49.760;6.632;2024-03-22T04:32:16;9.40;99.90
28530;DHT22;15737;49.760;6.632;2024-03-22T04:34:42;9.40;99.90
28530;DHT22;15737;49.760;6.632;2024-03-22T04:37:08;9.50;99.90
28530;DHT22;15737;49.760;6.632;2024-03-22T04:39:34;9.50;99.90
28530;DHT22;15737;49.760;6.632;2024-03-22T04:42:00;9.60;99.90
28530;DHT22;15737;49.760;6.632;2024-03-22T04:44:25;9.60;99.90
28530;DHT22;15737;49.760;6.632;2024-03-22T04:46:51;9.60;99.90
28530;DHT22;15737;49.760;6.632;2024-03-22T04:49:16;9.70;99.90
28530;DHT22;15737;49.760;6.632;2024-03-22T04:51:42;9.70;99.90
28530;DHT22;15737;49.760;6.632;2024-03-22T04:54:07;9.80;99.90
28530;DHT22;15737;49.760;6.632;2024-03-22T04:56:33;9.80;99.90
28530;DHT22;15737;49.760;6.632;2024-03-22T04:58:58;9.90;99.90
28530;DHT22;15737;49.760;6.632;2024-03-22T05:01:24;9.90;99.90
28530;DHT22;15737;49.760;6.632;2024-03-22T05:03:50;9.90;99.90
28530;DHT22;15737;49.760;6.632;2024-03-22T05:06:16;9.90;99.90
28530;DHT22;15737;49.760;6.632;2024-03-22T05:08:41;9.90;99.90
28530;DHT22;15737;49.760;6.632;2024-03-22T05:11:07;9.90;99.90
28530;DHT22;15737;49.760;6.632;2024-03-22T05:13:33;10.00;99.90
28530;DHT22;15737;49.760;6.632;2024-03-22T05:15:58;10.20;99.90
28530;DHT22;15737;49.760;6.632;2024-03-22T05:18:24;10.40;99.90
28530;DHT22;15737;49.760;6.632;2024-03-22T05:20:49;10.60;99.90
28530;DHT22;15737;49.760;6.632;2024-03-22T05:23:15;10.60;99.90
28530;DHT22;15737;49.760;6.632;2024-03-22T05:25:43;10.70;99.90
28530;DHT22;15737;49.760;6.632;2024-03-22T05:28:09;10.60;99.90
28530;DHT22;15737;49.760;6.632;2024-03-22T05:30:34;10.50;99.90
28530;DHT22;15737;49.760;6.632;2024-03-22T05:33:00;10.40;99.90
28530;DHT22;15737;49.760;6.632;2024-03-22T05:35:27;10.30;99.90
28530;DHT22;15737;49.760;6.632;2024-03-22T05:37:52;10.20;99.90
28530;DHT22;15737;49.760;6.632;2024-03-22T05:40:18;10.20;99.90
28530;DHT22;15737;49.760;6.632;2024-03-22T05:42:43;10.20;99.90
28530;DHT22;15737;49.760;6.632;2024-03-22T05:45:09;10.20;99.90
28530;DHT22;15737;49.760;6.632;2024-03-22T05:47:34;10.20;99.90
28530;DHT22;15737;49.760;6.632;2024-03-22T05:50:00;10.20;99.90
28530;DHT22;15737;49.760;6.632;2024-03-22T05:52:27;10.20;99.90
28530;DHT22;15737;49.760;6.632;2024-03-22T05:54:52;10.20;99.90
28530;DHT22;15737;49.760;6.632;2024-03-22T05:57:18;10.20;99.90
28530;DHT22;15737;49.760;6.632;2024-03-22T05:59:43;10.30;99.90
28530;DHT22;15737;49.760;6.632;2024-03-22T06:02:09;10.30;99.90
28530;DHT22;15737;49.760;6.632;2024-03-22T06:04:34;10.40;99.90
28530;DHT22;15737;49.760;6.632;2024-03-22T06:07:00;10.50;99.90
28530;DHT22;15737;49.760;6.632;2024-03-22T06:09:28;10.60;99.90
28530;DHT22;15737;49.760;6.632;2024-03-22T06:12:05;10.80;99.90
28530;DHT22;15737;49.760;6.632;2024-03-22T06:14:31;11.00;99.90
28530;DHT22;15737;49.760;6.632;2024-03-22T06:16:57;11.10;99.90
28530;DHT22;15737;49.760;6.632;2024-03-22T06:19:23;11.10;99.90
28530;DHT22;15737;49.760;6.632;2024-03-22T06:21:48;11.10;99.90
28530;DHT22;15737;49.760;6.632;2024-03-22T06:24:14;11.10;99.90
28530;DHT22;15737;49.760;6.632;2024-03-22T06:26:40;11.00;99.90
28530;DHT22;15737;49.760;6.632;2024-03-22T06:29:06;10.90;99.90
28530;DHT22;15737;49.760;6.632;2024-03-22T06:31:32;10.90;99.90
28530;DHT22;15737;49.760;6.632;2024-03-22T06:33:57;11.10;99.90
28530;DHT22;15737;49.760;6.632;2024-03-22T06:36:28;11.20;99.90
28530;DHT22;15737;49.760;6.632;2024-03-22T06:38:54;11.30;99.90
28530;DHT22;15737;49.760;6.632;2024-03-22T06:41:19;11.40;99.90
28530;DHT22;15737;49.760;6.632;2024-03-22T06:43:49;11.50;99.90
28530;DHT22;15737;49.760;6.632;2024-03-22T06:46:14;11.50;99.90
28530;DHT22;15737;49.760;6.632;2024-03-22T06:48:40;11.60;99.90
28530;DHT22;15737;49.760;6.632;2024-03-22T06:51:05;11.60;99.90
28530;DHT22;15737;49.760;6.632;2024-03-22T06:53:31;11.60;99.90
28530;DHT22;15737;49.760;6.632;2024-03-22T06:55:56;11.60;99.90
28530;DHT22;15737;49.760;6.632;2024-03-22T06:58:21;11.60;99.90
28530;DHT22;15737;49.760;6.632;2024-03-22T07:00:47;11.70;99.90
28530;DHT22;15737;49.760;6.632;2024-03-22T07:03:12;11.70;99.90
28530;DHT22;15737;49.760;6.632;2024-03-22T07:05:38;11.80;99.90
28530;DHT22;15737;49.760;6.632;2024-03-22T07:08:04;11.80;99.90
28530;DHT22;15737;49.760;6.632;2024-03-22T07:10:29;11.80;99.90
28530;DHT22;15737;49.760;6.632;2024-03-22T07:12:56;11.70;99.90
28530;DHT22;15737;49.760;6.632;2024-03-22T07:15:23;11.70;99.90
28530;DHT22;15737;49.760;6.632;2024-03-22T07:17:49;11.80;99.90
28530;DHT22;15737;49.760;6.632;2024-03-22T07:20:15;11.90;99.90
28530;DHT22;15737;49.760;6.632;2024-03-22T07:22:40;12.00;99.90
28530;DHT22;15737;49.760;6.632;2024-03-22T07:25:06;12.10;99.90
28530;DHT22;15737;49.760;6.632;2024-03-22T07:27:31;12.20;99.90
28530;DHT22;15737;49.760;6.632;2024-03-22T07:29:57;12.30;99.90
28530;DHT22;15737;49.760;6.632;2024-03-22T07:32:23;12.50;99.90
28530;DHT22;15737;49.760;6.632;2024-03-22T07:34:48;12.70;99.90
28530;DHT22;15737;49.760;6.632;2024-03-22T07:37:14;12.80;99.90
28530;DHT22;15737;49.760;6.632;2024-03-22T07:39:39;12.90;99.90
28530;DHT22;15737;49.760;6.632;2024-03-22T07:42:05;13.10;99.90
28530;DHT22;15737;49.760;6.632;2024-03-22T07:44:30;13.20;99.90
28530;DHT22;15737;49.760;6.632;2024-03-22T07:46:56;13.20;99.90
28530;DHT22;15737;49.760;6.632;2024-03-22T07:49:21;13.30;99.90
28530;DHT22;15737;49.760;6.632;2024-03-22T07:51:47;13.50;99.90
28530;DHT22;15737;49.760;6.632;2024-03-22T07:54:12;13.80;99.90
28530;DHT22;15737;49.760;6.632;2024-03-22T07:56:38;14.00;99.90
28530;DHT22;15737;49.760;6.632;2024-03-22T07:59:03;14.30;99.90
28530;DHT22;15737;49.760;6.632;2024-03-22T08:01:30;14.40;99.90
28530;DHT22;15737;49.760;6.632;2024-03-22T08:03:55;14.70;99.90
28530;DHT22;15737;49.760;6.632;2024-03-22T08:06:21;14.90;99.90
28530;DHT22;15737;49.760;6.632;2024-03-22T08:08:46;15.00;99.90
28530;DHT22;15737;49.760;6.632;2024-03-22T08:11:12;14.80;99.90
28530;DHT22;15737;49.760;6.632;2024-03-22T08:13:38;14.60;99.90
28530;DHT22;15737;49.760;6.632;2024-03-22T08:16:04;14.40;99.90
28530;DHT22;15737;49.760;6.632;2024-03-22T08:18:31;14.40;99.90
28530;DHT22;15737;49.760;6.632;2024-03-22T08:23:26;14.50;99.90
28530;DHT22;15737;49.760;6.632;2024-03-22T08:25:52;14.60;99.90
28530;DHT22;15737;49.760;6.632;2024-03-22T08:28:17;14.80;99.90
28530;DHT22;15737;49.760;6.632;2024-03-22T08:30:43;15.00;99.90
28530;DHT22;15737;49.760;6.632;2024-03-22T08:33:09;15.10;99.90
28530;DHT22;15737;49.760;6.632;2024-03-22T08:35:35;15.50;99.90
28530;DHT22;15737;49.760;6.632;2024-03-22T08:38:01;16.10;99.90
28530;DHT22;15737;49.760;6.632;2024-03-22T08:40:26;16.40;99.90
28530;DHT22;15737;49.760;6.632;2024-03-22T08:42:52;16.70;99.90
28530;DHT22;15737;49.760;6.632;2024-03-22T08:45:18;17.30;99.90
28530;DHT22;15737;49.760;6.632;2024-03-22T08:47:43;17.90;99.90
28530;DHT22;15737;49.760;6.632;2024-03-22T08:50:11;19.00;99.90
28530;DHT22;15737;49.760;6.632;2024-03-22T08:52:37;19.30;99.90
28530;DHT22;15737;49.760;6.632;2024-03-22T08:55:03;19.90;99.90
28530;DHT22;15737;49.760;6.632;2024-03-22T08:57:31;20.50;99.90
28530;DHT22;15737;49.760;6.632;2024-03-22T08:59:56;21.40;99.90
28530;DHT22;15737;49.760;6.632;2024-03-22T09:02:22;22.20;97.60
28530;DHT22;15737;49.760;6.632;2024-03-22T09:04:48;22.70;95.90
28530;DHT22;15737;49.760;6.632;2024-03-22T09:07:13;22.80;94.60
28530;DHT22;15737;49.760;6.632;2024-03-22T09:09:39;23.70;93.20
28530;DHT22;15737;49.760;6.632;2024-03-22T09:12:05;25.10;89.00
28530;DHT22;15737;49.760;6.632;2024-03-22T09:14:30;25.60;84.40
28530;DHT22;15737;49.760;6.632;2024-03-22T09:16:56;24.50;84.80
28530;DHT22;15737;49.760;6.632;2024-03-22T09:19:21;23.10;86.50
28530;DHT22;15737;49.760;6.632;2024-03-22T09:21:47;22.50;87.70
28530;DHT22;15737;49.760;6.632;2024-03-22T09:24:12;22.60;87.20
28530;DHT22;15737;49.760;6.632;2024-03-22T09:26:38;22.30;88.10
28530;DHT22;15737;49.760;6.632;2024-03-22T09:29:03;22.20;86.40
28530;DHT22;15737;49.760;6.632;2024-03-22T09:31:29;21.70;87.90
28530;DHT22;15737;49.760;6.632;2024-03-22T09:33:56;21.90;86.30
28530;DHT22;15737;49.760;6.632;2024-03-22T09:36:22;21.90;87.10
28530;DHT22;15737;49.760;6.632;2024-03-22T09:38:47;21.50;86.90
28530;DHT22;15737;49.760;6.632;2024-03-22T09:41:14;21.00;88.70
28530;DHT22;15737;49.760;6.632;2024-03-22T09:43:39;20.00;90.20
28530;DHT22;15737;49.760;6.632;2024-03-22T09:46:06;19.70;91.20
28530;DHT22;15737;49.760;6.632;2024-03-22T09:48:35;19.40;91.50
28530;DHT22;15737;49.760;6.632;2024-03-22T09:51:01;19.50;92.10
28530;DHT22;15737;49.760;6.632;2024-03-22T09:53:27;20.40;91.50
28530;DHT22;15737;49.760;6.632;2024-03-22T09:55:56;21.80;90.00
28530;DHT22;15737;49.760;6.632;2024-03-22T09:58:24;22.20;87.70
28530;DHT22;15737;49.760;6.632;2024-03-22T10:00:50;22.10;87.00
28530;DHT22;15737;49.760;6.632;2024-03-22T10:03:15;21.70;87.10
28530;DHT22;15737;49.760;6.632;2024-03-22T10:05:41;21.50;87.30
28530;DHT22;15737;49.760;6.632;2024-03-22T10:08:06;21.00;88.70
28530;DHT22;15737;49.760;6.632;2024-03-22T10:10:32;20.70;90.00
28530;DHT22;15737;49.760;6.632;2024-03-22T10:13:01;20.40;90.40
28530;DHT22;15737;49.760;6.632;2024-03-22T10:15:26;20.30;90.80
28530;DHT22;15737;49.760;6.632;2024-03-22T10:17:52;20.20;91.00
28530;DHT22;15737;49.760;6.632;2024-03-22T10:20:20;19.80;91.10
28530;DHT22;15737;49.760;6.632;2024-03-22T10:22:55;19.60;91.70
28530;DHT22;15737;49.760;6.632;2024-03-22T10:25:22;19.60;91.70
28530;DHT22;15737;49.760;6.632;2024-03-22T10:27:47;19.60;92.00
28530;DHT22;15737;49.760;6.632;2024-03-22T10:30:15;20.00;91.90
28530;DHT22;15737;49.760;6.632;2024-03-22T10:32:42;20.10;91.60
28530;DHT22;15737;49.760;6.632;2024-03-22T10:35:11;20.10;91.60
28530;DHT22;15737;49.760;6.632;2024-03-22T10:37:38;20.00;92.00
28530;DHT22;15737;49.760;6.632;2024-03-22T10:40:05;19.80;91.80
28530;DHT22;15737;49.760;6.632;2024-03-22T10:42:41;19.60;92.00
28530;DHT22;15737;49.760;6.632;2024-03-22T10:45:08;19.20;92.70
28530;DHT22;15737;49.760;6.632;2024-03-22T10:47:36;19.20;93.10
28530;DHT22;15737;49.760;6.632;2024-03-22T10:50:12;19.50;93.00
28530;DHT22;15737;49.760;6.632;2024-03-22T10:52:59;19.60;92.90
28530;DHT22;15737;49.760;6.632;2024-03-22T10:57:57;19.70;92.60
28530;DHT22;15737;49.760;6.632;2024-03-22T11:00:31;19.10;93.20
28530;DHT22;15737;49.760;6.632;2024-03-22T11:02:57;19.10;93.70
28530;DHT22;15737;49.760;6.632;2024-03-22T11:05:22;19.10;93.70
28530;DHT22;15737;49.760;6.632;2024-03-22T11:08:04;19.20;93.90
28530;DHT22;15737;49.760;6.632;2024-03-22T11:10:33;19.40;93.80
28530;DHT22;15737;49.760;6.632;2024-03-22T11:13:07;19.90;93.30
28530;DHT22;15737;49.760;6.632;2024-03-22T11:15:34;20.10;92.90
28530;DHT22;15737;49.760;6.632;2024-03-22T11:18:00;19.80;93.20
28530;DHT22;15737;49.760;6.632;2024-03-22T11:20:27;19.60;93.40
28530;DHT22;15737;49.760;6.632;2024-03-22T11:22:52;19.40;93.50
28530;DHT22;15737;49.760;6.632;2024-03-22T11:25:18;19.40;93.90
28530;DHT22;15737;49.760;6.632;2024-03-22T11:27:50;19.60;93.70
28530;DHT22;15737;49.760;6.632;2024-03-22T11:30:16;19.70;93.60
28530;DHT22;15737;49.760;6.632;2024-03-22T11:32:42;19.90;93.40
28530;DHT22;15737;49.760;6.632;2024-03-22T11:35:11;20.10;93.50
28530;DHT22;15737;49.760;6.632;2024-03-22T11:37:39;20.40;92.90
28530;DHT22;15737;49.760;6.632;2024-03-22T11:40:08;20.30;93.00
28530;DHT22;15737;49.760;6.632;2024-03-22T11:42:39;20.10;93.10
28530;DHT22;15737;49.760;6.632;2024-03-22T11:45:05;19.70;93.50
28530;DHT22;15737;49.760;6.632;2024-03-22T11:47:33;19.60;94.00
28530;DHT22;15737;49.760;6.632;2024-03-22T11:49:59;19.70;93.80
28530;DHT22;15737;49.760;6.632;2024-03-22T11:52:28;19.60;94.00
28530;DHT22;15737;49.760;6.632;2024-03-22T11:54:54;19.30;94.10
28530;DHT22;15737;49.760;6.632;2024-03-22T11:57:21;19.00;94.30
28530;DHT22;15737;49.760;6.632;2024-03-22T11:59:47;18.60;93.70
28530;DHT22;15737;49.760;6.632;2024-03-22T12:02:13;18.10;94.00
28530;DHT22;15737;49.760;6.632;2024-03-22T12:04:46;17.90;94.60
28530;DHT22;15737;49.760;6.632;2024-03-22T12:07:16;17.80;94.90
28530;DHT22;15737;49.760;6.632;2024-03-22T12:09:42;17.70;95.20
28530;DHT22;15737;49.760;6.632;2024-03-22T12:12:10;17.70;95.20
28530;DHT22;15737;49.760;6.632;2024-03-22T12:14:36;17.60;95.50
28530;DHT22;15737;49.760;6.632;2024-03-22T12:17:05;17.60;95.50
28530;DHT22;15737;49.760;6.632;2024-03-22T12:19:31;17.60;95.70
28530;DHT22;15737;49.760;6.632;2024-03-22T12:21:56;17.80;95.50
28530;DHT22;15737;49.760;6.632;2024-03-22T12:24:43;17.80;95.60
28530;DHT22;15737;49.760;6.632;2024-03-22T12:27:09;18.00;95.50
28530;DHT22;15737;49.760;6.632;2024-03-22T12:29:35;18.20;95.20
28530;DHT22;15737;49.760;6.632;2024-03-22T12:32:01;18.30;94.90
28530;DHT22;15737;49.760;6.632;2024-03-22T12:34:29;18.40;94.80
28530;DHT22;15737;49.760;6.632;2024-03-22T12:36:55;18.40;94.80
28530;DHT22;15737;49.760;6.632;2024-03-22T12:39:21;18.40;94.60
28530;DHT22;15737;49.760;6.632;2024-03-22T12:41:46;18.10;94.70
28530;DHT22;15737;49.760;6.632;2024-03-22T12:44:12;17.70;95.10
28530;DHT22;15737;49.760;6.632;2024-03-22T12:46:37;17.80;95.30
28530;DHT22;15737;49.760;6.632;2024-03-22T12:49:03;17.80;95.30
28530;DHT22;15737;49.760;6.632;2024-03-22T12:51:28;17.70;95.20
28530;DHT22;15737;49.760;6.632;2024-03-22T12:53:54;17.70;95.30
28530;DHT22;15737;49.760;6.632;2024-03-22T12:56:20;17.90;95.00
28530;DHT22;15737;49.760;6.632;2024-03-22T12:58:46;18.00;94.60
28530;DHT22;15737;49.760;6.632;2024-03-22T13:01:12;18.20;94.60
28530;DHT22;15737;49.760;6.632;2024-03-22T13:03:38;18.50;94.60
28530;DHT22;15737;49.760;6.632;2024-03-22T13:06:04;18.90;94.50
28530;DHT22;15737;49.760;6.632;2024-03-22T13:08:31;19.10;94.10
28530;DHT22;15737;49.760;6.632;2024-03-22T13:10:56;19.20;93.40
28530;DHT22;15737;49.760;6.632;2024-03-22T13:13:22;19.20;93.90
28530;DHT22;15737;49.760;6.632;2024-03-22T13:15:47;19.90;92.80
28530;DHT22;15737;49.760;6.632;2024-03-22T13:18:13;20.90;92.00
28530;DHT22;15737;49.760;6.632;2024-03-22T13:20:39;21.90;91.20
28530;DHT22;15737;49.760;6.632;2024-03-22T13:23:05;23.10;90.20
28530;DHT22;15737;49.760;6.632;2024-03-22T13:25:31;23.80;86.30
28530;DHT22;15737;49.760;6.632;2024-03-22T13:27:56;23.00;87.40
28530;DHT22;15737;49.760;6.632;2024-03-22T13:32:53;22.30;87.30
28530;DHT22;15737;49.760;6.632;2024-03-22T13:35:18;21.00;89.20
28530;DHT22;15737;49.760;6.632;2024-03-22T13:37:44;20.40;90.50
28530;DHT22;15737;49.760;6.632;2024-03-22T13:40:09;20.30;90.90
28530;DHT22;15737;49.760;6.632;2024-03-22T13:42:36;20.60;90.90
28530;DHT22;15737;49.760;6.632;2024-03-22T13:45:01;21.10;90.50
28530;DHT22;15737;49.760;6.632;2024-03-22T13:47:27;21.10;89.60
28530;DHT22;15737;49.760;6.632;2024-03-22T13:49:56;20.70;89.30
28530;DHT22;15737;49.760;6.632;2024-03-22T13:52:21;20.20;88.90
28530;DHT22;15737;49.760;6.632;2024-03-22T13:54:47;19.80;89.80
28530;DHT22;15737;49.760;6.632;2024-03-22T13:57:19;19.50;90.20
28530;DHT22;15737;49.760;6.632;2024-03-22T13:59:44;19.70;90.10
28530;DHT22;15737;49.760;6.632;2024-03-22T14:02:11;19.90;88.00
28530;DHT22;15737;49.760;6.632;2024-03-22T14:04:36;20.20;87.20
28530;DHT22;15737;49.760;6.632;2024-03-22T14:07:02;20.40;87.00
28530;DHT22;15737;49.760;6.632;2024-03-22T14:09:32;21.00;85.10
28530;DHT22;15737;49.760;6.632;2024-03-22T14:11:57;21.30;83.20
28530;DHT22;15737;49.760;6.632;2024-03-22T14:14:25;21.50;82.00
28530;DHT22;15737;49.760;6.632;2024-03-22T14:16:51;21.70;82.00
28530;DHT22;15737;49.760;6.632;2024-03-22T14:19:16;22.00;82.00
28530;DHT22;15737;49.760;6.632;2024-03-22T14:21:43;23.00;79.20
28530;DHT22;15737;49.760;6.632;2024-03-22T14:24:20;23.50;76.20
28530;DHT22;15737;49.760;6.632;2024-03-22T14:26:45;23.50;72.80
28530;DHT22;15737;49.760;6.632;2024-03-22T14:29:14;22.80;72.30
28530;DHT22;15737;49.760;6.632;2024-03-22T14:31:40;22.40;72.50
28530;DHT22;15737;49.760;6.632;2024-03-22T14:34:08;22.10;73.90
28530;DHT22;15737;49.760;6.632;2024-03-22T14:36:34;22.40;72.60
28530;DHT22;15737;49.760;6.632;2024-03-22T14:38:59;22.30;72.90
28530;DHT22;15737;49.760;6.632;2024-03-22T14:41:25;22.30;74.10
28530;DHT22;15737;49.760;6.632;2024-03-22T14:43:51;22.50;73.10
28530;DHT22;15737;49.760;6.632;2024-03-22T14:46:17;21.90;74.30
28530;DHT22;15737;49.760;6.632;2024-03-22T14:48:45;22.20;73.50
28530;DHT22;15737;49.760;6.632;2024-03-22T14:51:11;21.80;74.60
28530;DHT22;15737;49.760;6.632;2024-03-22T14:53:39;21.60;75.20
28530;DHT22;15737;49.760;6.632;2024-03-22T14:56:05;21.30;75.30
28530;DHT22;15737;49.760;6.632;2024-03-22T14:58:32;21.20;75.70
28530;DHT22;15737;49.760;6.632;2024-03-22T15:00:59;20.90;75.60
28530;DHT22;15737;49.760;6.632;2024-03-22T15:03:25;20.60;76.20
28530;DHT22;15737;49.760;6.632;2024-03-22T15:06:06;20.20;77.20
28530;DHT22;15737;49.760;6.632;2024-03-22T15:08:31;19.80;78.40
28530;DHT22;15737;49.760;6.632;2024-03-22T15:10:57;19.90;78.50
28530;DHT22;15737;49.760;6.632;2024-03-22T15:13:23;19.80;78.50
28530;DHT22;15737;49.760;6.632;2024-03-22T15:15:53;19.70;79.00
28530;DHT22;15737;49.760;6.632;2024-03-22T15:18:19;19.70;79.40
28530;DHT22;15737;49.760;6.632;2024-03-22T15:23:30;20.30;79.40
28530;DHT22;15737;49.760;6.632;2024-03-22T15:25:55;20.90;78.40
28530;DHT22;15737;49.760;6.632;2024-03-22T15:28:21;20.80;76.20
28530;DHT22;15737;49.760;6.632;2024-03-22T15:30:47;20.10;77.40
28530;DHT22;15737;49.760;6.632;2024-03-22T15:33:13;19.80;78.90
28530;DHT22;15737;49.760;6.632;2024-03-22T15:35:38;19.60;79.30
28530;DHT22;15737;49.760;6.632;2024-03-22T15:38:05;19.30;79.80